Time;durP1;ratioP1;P1;durP2;ratioP2;P2;SDS_P1;SDS_P2;PMS_P1;PMS_P2;Temp;Humidity;BMP_temperature;BMP_pressure;BME280_temperature;BME280_humidity;BME280_pressure;Samples;Min_cycle;Max_cycle;Signal;HPM_P1;HPM_P2
2021/08/11 00:00:04;;;;;;;;;;;19.30;99.90;;;;;;2113457;28;745;-53
2021/08/11 00:01:25;;;;;;;;;;;19.30;99.90;;;;;;2105386;28;738;-55
2021/08/11 00:02:44;;;;;;;;;;;19.30;99.90;;;;;;2107194;28;1998;-55
2021/08/11 00:04:03;;;;;;;;;;;19.30;99.90;;;;;;2102084;28;743;-53
2021/08/11 00:05:22;;;;;;;;;;;19.30;99.90;;;;;;2106048;28;796;-53
2021/08/11 00:06:42;;;;;;;;;;;19.30;99.90;;;;;;2097333;28;733;-54
2021/08/11 00:08:01;;;;;;;;;;;19.30;99.90;;;;;;2102378;28;761;-55
2021/08/11 00:09:20;;;;;;;;;;;19.30;99.90;;;;;;2094055;28;725;-54
2021/08/11 00:10:40;;;;;;;;;;;19.30;99.90;;;;;;2101634;28;1973;-55
2021/08/11 00:11:59;;;;;;;;;;;19.30;99.90;;;;;;2106131;28;742;-54
2021/08/11 00:13:18;;;;;;;;;;;19.30;99.90;;;;;;2100968;28;1529;-53
2021/08/11 00:14:37;;;;;;;;;;;19.30;99.90;;;;;;2097574;28;767;-55
2021/08/11 00:15:56;;;;;;;;;;;19.30;99.90;;;;;;2097823;28;725;-54
2021/08/11 00:17:15;;;;;;;;;;;19.30;99.90;;;;;;2099203;28;1513;-53
2021/08/11 00:18:35;;;;;;;;;;;19.30;99.90;;;;;;2105387;28;977;-55
2021/08/11 00:19:54;;;;;;;;;;;19.30;99.90;;;;;;2105445;28;733;-54
2021/08/11 00:21:13;;;;;;;;;;;19.30;99.90;;;;;;2106810;28;749;-55
2021/08/11 00:22:32;;;;;;;;;;;19.30;99.90;;;;;;2107250;28;785;-54
2021/08/11 00:23:52;;;;;;;;;;;19.30;99.90;;;;;;2107227;28;710;-55
2021/08/11 00:25:11;;;;;;;;;;;19.30;99.90;;;;;;2107452;28;747;-53
2021/08/11 00:26:30;;;;;;;;;;;19.30;99.90;;;;;;2104676;28;1499;-54
2021/08/11 00:27:49;;;;;;;;;;;19.30;99.90;;;;;;2090825;28;889;-54
2021/08/11 00:29:11;;;;;;;;;;;19.30;99.90;;;;;;2098496;28;1679;-54
2021/08/11 00:30:30;;;;;;;;;;;19.20;99.90;;;;;;2094510;28;1902;-55
2021/08/11 00:31:50;;;;;;;;;;;19.30;99.90;;;;;;2083944;28;732;-54
2021/08/11 00:33:09;;;;;;;;;;;19.30;99.90;;;;;;2092108;28;1415;-55
2021/08/11 00:34:28;;;;;;;;;;;19.30;99.90;;;;;;2103326;28;1441;-53
2021/08/11 00:35:48;;;;;;;;;;;19.30;99.90;;;;;;2103666;28;641;-55
2021/08/11 00:37:07;;;;;;;;;;;19.30;99.90;;;;;;2106925;28;664;-54
2021/08/11 00:38:30;;;;;;;;;;;19.20;99.90;;;;;;2106658;28;625;-54
2021/08/11 00:39:59;;;;;;;;;;;19.20;99.90;;;;;;2096498;28;667;-54
2021/08/11 00:41:19;;;;;;;;;;;19.20;99.90;;;;;;2100854;28;1456;-53
2021/08/11 00:42:38;;;;;;;;;;;19.20;99.90;;;;;;2098834;28;753;-53
2021/08/11 00:43:57;;;;;;;;;;;19.20;99.90;;;;;;2098743;28;711;-54
2021/08/11 00:45:17;;;;;;;;;;;19.20;99.90;;;;;;2098491;28;1004;-53
2021/08/11 00:46:40;;;;;;;;;;;19.20;99.90;;;;;;2098629;28;767;-53
2021/08/11 00:47:59;;;;;;;;;;;19.20;99.90;;;;;;2095839;28;732;-55
2021/08/11 00:49:20;;;;;;;;;;;19.20;99.90;;;;;;2098718;28;771;-55
2021/08/11 00:50:41;;;;;;;;;;;19.20;99.90;;;;;;2094632;28;1914;-53
2021/08/11 00:52:00;;;;;;;;;;;19.20;99.90;;;;;;2101008;28;732;-53
2021/08/11 00:53:22;;;;;;;;;;;19.20;99.90;;;;;;2103685;28;1450;-55
2021/08/11 00:54:42;;;;;;;;;;;19.20;99.90;;;;;;2098839;28;811;-54
2021/08/11 00:56:01;;;;;;;;;;;19.20;99.90;;;;;;2095364;28;1734;-53
2021/08/11 00:57:24;;;;;;;;;;;19.20;99.90;;;;;;2101541;28;1074;-55
2021/08/11 00:58:44;;;;;;;;;;;19.20;99.90;;;;;;2085088;28;797;-56
2021/08/11 01:00:03;;;;;;;;;;;19.20;99.90;;;;;;2111744;28;731;-53
2021/08/11 01:01:24;;;;;;;;;;;19.20;99.90;;;;;;2112152;28;773;-54
2021/08/11 01:02:43;;;;;;;;;;;19.20;99.90;;;;;;2092256;28;1688;-53
2021/08/11 01:04:03;;;;;;;;;;;19.20;99.90;;;;;;2089246;28;735;-53
2021/08/11 01:05:23;;;;;;;;;;;19.20;99.90;;;;;;2095086;28;2097;-55
2021/08/11 01:06:43;;;;;;;;;;;19.20;99.90;;;;;;2098996;28;1536;-55
2021/08/11 01:08:03;;;;;;;;;;;19.20;99.90;;;;;;2095279;28;721;-55
2021/08/11 01:09:23;;;;;;;;;;;19.20;99.90;;;;;;2095819;28;1170;-55
2021/08/11 01:10:48;;;;;;;;;;;19.20;99.90;;;;;;2093006;28;1907;-56
2021/08/11 01:12:07;;;;;;;;;;;19.20;99.90;;;;;;2101136;28;856;-56
2021/08/11 01:13:27;;;;;;;;;;;19.20;99.90;;;;;;2094905;28;1751;-53
2021/08/11 01:14:47;;;;;;;;;;;19.20;99.90;;;;;;2095290;28;729;-56
2021/08/11 01:16:06;;;;;;;;;;;19.20;99.90;;;;;;2086948;28;749;-55
2021/08/11 01:17:28;;;;;;;;;;;19.20;99.90;;;;;;2092772;28;713;-55
2021/08/11 01:18:47;;;;;;;;;;;19.20;99.90;;;;;;2094857;28;810;-53
2021/08/11 01:20:07;;;;;;;;;;;19.20;99.90;;;;;;2094311;28;742;-55
2021/08/11 01:21:49;;;;;;;;;;;19.20;99.90;;;;;;2105232;28;1311;-54
2021/08/11 01:23:10;;;;;;;;;;;19.20;99.90;;;;;;2101479;28;1491;-54
2021/08/11 01:24:35;;;;;;;;;;;19.20;99.90;;;;;;2095069;28;1196;-55
2021/08/11 01:26:16;;;;;;;;;;;19.20;99.90;;;;;;2096072;28;789;-55
2021/08/11 01:27:53;;;;;;;;;;;19.20;99.90;;;;;;2094620;28;1070;-54
2021/08/11 01:29:33;;;;;;;;;;;19.20;99.90;;;;;;2106627;28;984;-53
2021/08/11 01:30:55;;;;;;;;;;;19.20;99.90;;;;;;2102706;28;1951;-54
2021/08/11 01:32:16;;;;;;;;;;;19.20;99.90;;;;;;2089171;28;1338;-53
2021/08/11 01:33:54;;;;;;;;;;;19.10;99.90;;;;;;2103934;28;1358;-54
2021/08/11 01:35:17;;;;;;;;;;;19.10;99.90;;;;;;2114845;28;716;-54
2021/08/11 01:36:36;;;;;;;;;;;19.10;99.90;;;;;;2115208;28;716;-54
2021/08/11 01:37:56;;;;;;;;;;;19.10;99.90;;;;;;2095214;28;1497;-53
2021/08/11 01:39:18;;;;;;;;;;;19.10;99.90;;;;;;2100219;28;737;-53
2021/08/11 01:40:38;;;;;;;;;;;19.10;99.90;;;;;;2094826;28;1638;-55
2021/08/11 01:42:13;;;;;;;;;;;19.10;99.90;;;;;;2087095;28;813;-53
2021/08/11 01:43:37;;;;;;;;;;;19.10;99.90;;;;;;2088787;28;1389;-53
2021/08/11 01:45:13;;;;;;;;;;;19.10;99.90;;;;;;2084501;28;732;-53
2021/08/11 01:46:40;;;;;;;;;;;19.10;99.90;;;;;;2098825;28;707;-53
2021/08/11 01:48:01;;;;;;;;;;;19.10;99.90;;;;;;2098354;28;706;-55
2021/08/11 01:49:23;;;;;;;;;;;19.10;99.90;;;;;;2087039;28;736;-54
2021/08/11 01:50:43;;;;;;;;;;;19.10;99.90;;;;;;2078198;28;1894;-53
2021/08/11 01:52:05;;;;;;;;;;;19.10;99.90;;;;;;2098643;28;733;-53
2021/08/11 01:53:25;;;;;;;;;;;19.10;99.90;;;;;;2089705;28;1485;-53
2021/08/11 01:54:45;;;;;;;;;;;19.10;99.90;;;;;;2091636;28;726;-53
2021/08/11 01:56:04;;;;;;;;;;;19.10;99.90;;;;;;2095039;28;710;-53
2021/08/11 01:57:31;;;;;;;;;;;19.10;99.90;;;;;;2102109;28;1039;-53
2021/08/11 01:58:50;;;;;;;;;;;19.10;99.90;;;;;;2094851;28;920;-53
2021/08/11 02:00:10;;;;;;;;;;;19.10;99.90;;;;;;2106794;28;1033;-53
2021/08/11 02:01:34;;;;;;;;;;;19.10;99.90;;;;;;2098319;28;1667;-53
2021/08/11 02:02:53;;;;;;;;;;;19.10;99.90;;;;;;2101001;28;1679;-53
2021/08/11 02:04:16;;;;;;;;;;;19.10;99.90;;;;;;2105930;28;729;-55
2021/08/11 02:05:35;;;;;;;;;;;19.10;99.90;;;;;;2106582;28;681;-55
2021/08/11 02:07:02;;;;;;;;;;;19.10;99.90;;;;;;2097931;28;740;-55
2021/08/11 02:08:22;;;;;;;;;;;19.10;99.90;;;;;;2094707;28;759;-54
2021/08/11 02:09:44;;;;;;;;;;;19.10;99.90;;;;;;2101147;28;710;-53
2021/08/11 02:11:03;;;;;;;;;;;19.10;99.90;;;;;;2091640;28;1945;-54
2021/08/11 02:12:26;;;;;;;;;;;19.10;99.90;;;;;;2086926;28;750;-54
2021/08/11 02:13:46;;;;;;;;;;;19.00;99.90;;;;;;2091788;28;1412;-54
2021/08/11 02:15:07;;;;;;;;;;;19.00;99.90;;;;;;2086645;28;770;-53
2021/08/11 02:16:26;;;;;;;;;;;19.00;99.90;;;;;;2084018;28;2037;-53
2021/08/11 02:17:46;;;;;;;;;;;19.10;99.90;;;;;;2091392;28;909;-53
2021/08/11 02:19:07;;;;;;;;;;;19.10;99.90;;;;;;2098191;28;1543;-53
2021/08/11 02:20:26;;;;;;;;;;;19.10;99.90;;;;;;2102473;28;717;-55
2021/08/11 02:21:50;;;;;;;;;;;19.00;99.90;;;;;;2095143;28;764;-53
2021/08/11 02:23:09;;;;;;;;;;;19.10;99.90;;;;;;2097952;28;1442;-53
2021/08/11 02:24:29;;;;;;;;;;;19.00;99.90;;;;;;2097835;28;919;-53
2021/08/11 02:25:50;;;;;;;;;;;19.10;99.90;;;;;;2094674;28;720;-54
2021/08/11 02:27:10;;;;;;;;;;;19.10;99.90;;;;;;2086469;28;791;-53
2021/08/11 02:28:36;;;;;;;;;;;19.10;99.90;;;;;;2090701;28;1141;-54
2021/08/11 02:29:55;;;;;;;;;;;19.00;99.90;;;;;;2110793;28;1026;-54
2021/08/11 02:31:23;;;;;;;;;;;19.10;99.90;;;;;;2105869;28;1471;-55
2021/08/11 02:32:59;;;;;;;;;;;19.00;99.90;;;;;;2098020;28;700;-53
2021/08/11 02:34:26;;;;;;;;;;;19.00;99.90;;;;;;2096853;28;711;-54
2021/08/11 02:35:50;;;;;;;;;;;19.00;99.90;;;;;;2101649;28;721;-54
2021/08/11 02:37:11;;;;;;;;;;;19.00;99.90;;;;;;2106124;28;727;-54
2021/08/11 02:38:39;;;;;;;;;;;19.00;99.90;;;;;;2097942;28;761;-55
2021/08/11 02:40:03;;;;;;;;;;;19.00;99.90;;;;;;2095487;28;1403;-54
2021/08/11 02:41:26;;;;;;;;;;;19.10;99.90;;;;;;2096244;28;1964;-55
2021/08/11 02:42:58;;;;;;;;;;;19.00;99.90;;;;;;2088648;28;798;-54
2021/08/11 02:44:22;;;;;;;;;;;19.00;99.90;;;;;;2094018;28;1981;-53
2021/08/11 02:45:41;;;;;;;;;;;19.00;99.90;;;;;;2103361;28;711;-55
2021/08/11 02:47:00;;;;;;;;;;;19.00;99.90;;;;;;2105775;28;1788;-53
2021/08/11 02:48:23;;;;;;;;;;;19.00;99.90;;;;;;2101448;28;1277;-53
2021/08/11 02:49:42;;;;;;;;;;;19.00;99.90;;;;;;2094632;28;742;-55
2021/08/11 02:51:03;;;;;;;;;;;19.00;99.90;;;;;;2090585;28;1963;-54
2021/08/11 02:52:23;;;;;;;;;;;19.00;99.90;;;;;;2091101;28;719;-53
2021/08/11 02:53:43;;;;;;;;;;;19.00;99.90;;;;;;2099549;28;1347;-53
2021/08/11 02:55:02;;;;;;;;;;;19.00;99.90;;;;;;2094269;28;717;-55
2021/08/11 02:56:22;;;;;;;;;;;19.00;99.90;;;;;;2091279;28;725;-54
2021/08/11 02:57:41;;;;;;;;;;;19.00;99.90;;;;;;2090905;28;706;-54
2021/08/11 02:59:00;;;;;;;;;;;19.00;99.90;;;;;;2095073;28;992;-53
2021/08/11 03:00:20;;;;;;;;;;;19.00;99.90;;;;;;2090646;28;1210;-55
2021/08/11 03:01:39;;;;;;;;;;;19.00;99.90;;;;;;2100216;28;1426;-55
2021/08/11 03:02:58;;;;;;;;;;;19.00;99.90;;;;;;2094197;28;1429;-55
2021/08/11 03:04:17;;;;;;;;;;;19.00;99.90;;;;;;2100932;28;1150;-56
2021/08/11 03:05:38;;;;;;;;;;;19.00;99.90;;;;;;2099141;28;1105;-53
2021/08/11 03:06:58;;;;;;;;;;;19.00;99.90;;;;;;2097267;28;1057;-55
2021/08/11 03:08:18;;;;;;;;;;;19.00;99.90;;;;;;2091573;28;1347;-54
2021/08/11 03:09:37;;;;;;;;;;;19.00;99.90;;;;;;2091421;28;1097;-54
2021/08/11 03:10:56;;;;;;;;;;;19.00;99.90;;;;;;2087653;28;1914;-55
2021/08/11 03:12:16;;;;;;;;;;;19.00;99.90;;;;;;2085114;28;1183;-53
2021/08/11 03:13:41;;;;;;;;;;;19.00;99.90;;;;;;2090881;28;1549;-54
2021/08/11 03:15:01;;;;;;;;;;;19.00;99.90;;;;;;2096676;28;1233;-55
2021/08/11 03:16:20;;;;;;;;;;;19.00;99.90;;;;;;2094425;28;1145;-54
2021/08/11 03:17:40;;;;;;;;;;;19.10;99.90;;;;;;2099313;28;1148;-55
2021/08/11 03:19:00;;;;;;;;;;;19.00;99.90;;;;;;2090326;28;1270;-55
2021/08/11 03:20:19;;;;;;;;;;;19.00;99.90;;;;;;2089443;28;1168;-55
2021/08/11 03:21:39;;;;;;;;;;;19.00;99.90;;;;;;2090103;28;1702;-55
2021/08/11 03:23:00;;;;;;;;;;;19.10;99.90;;;;;;2086402;28;1967;-55
2021/08/11 03:24:20;;;;;;;;;;;19.00;99.90;;;;;;2088920;28;1270;-55
2021/08/11 03:25:40;;;;;;;;;;;19.00;99.90;;;;;;2099215;28;1320;-55
2021/08/11 03:27:00;;;;;;;;;;;19.00;99.90;;;;;;2094310;28;1222;-53
2021/08/11 03:28:21;;;;;;;;;;;19.00;99.90;;;;;;2098375;28;1150;-55
2021/08/11 03:29:41;;;;;;;;;;;19.00;99.90;;;;;;2094369;28;1093;-55
2021/08/11 03:31:00;;;;;;;;;;;19.00;99.90;;;;;;2098406;28;1914;-54
2021/08/11 03:32:21;;;;;;;;;;;19.00;99.90;;;;;;2103013;28;1441;-54
2021/08/11 03:33:41;;;;;;;;;;;19.00;99.90;;;;;;2102385;28;1449;-54
2021/08/11 03:35:00;;;;;;;;;;;19.00;99.90;;;;;;2097453;28;1240;-54
2021/08/11 03:36:21;;;;;;;;;;;19.00;99.90;;;;;;2091306;28;1679;-55
2021/08/11 03:37:40;;;;;;;;;;;19.00;99.90;;;;;;2095712;28;1328;-54
2021/08/11 03:39:00;;;;;;;;;;;19.00;99.90;;;;;;2099600;28;1025;-54
2021/08/11 03:40:21;;;;;;;;;;;19.00;99.90;;;;;;2095664;28;1053;-55
2021/08/11 03:41:41;;;;;;;;;;;19.00;99.90;;;;;;2089475;28;1492;-55
2021/08/11 03:43:00;;;;;;;;;;;19.00;99.90;;;;;;2091259;28;1569;-54
2021/08/11 03:44:20;;;;;;;;;;;19.00;99.90;;;;;;2089761;28;1382;-53
2021/08/11 03:45:42;;;;;;;;;;;19.00;99.90;;;;;;2097531;28;1223;-53
2021/08/11 03:47:02;;;;;;;;;;;19.00;99.90;;;;;;2100688;28;1314;-55
2021/08/11 03:48:22;;;;;;;;;;;19.00;99.90;;;;;;2092962;28;1684;-54
2021/08/11 03:49:45;;;;;;;;;;;19.00;99.90;;;;;;2094912;28;1476;-53
2021/08/11 03:51:05;;;;;;;;;;;19.00;99.90;;;;;;2105672;28;1898;-53
2021/08/11 03:52:24;;;;;;;;;;;19.00;99.90;;;;;;2102786;28;1174;-54
2021/08/11 03:53:43;;;;;;;;;;;19.00;99.90;;;;;;2103073;28;1444;-56
2021/08/11 03:55:04;;;;;;;;;;;19.00;99.90;;;;;;2100254;28;1325;-54
2021/08/11 03:56:23;;;;;;;;;;;19.00;99.90;;;;;;2087796;28;1319;-54
2021/08/11 03:57:42;;;;;;;;;;;18.90;99.90;;;;;;2088316;28;1145;-54
2021/08/11 03:59:02;;;;;;;;;;;18.80;99.90;;;;;;2083527;28;1052;-55
2021/08/11 04:00:21;;;;;;;;;;;18.60;99.90;;;;;;2095870;28;1301;-53
2021/08/11 04:01:41;;;;;;;;;;;18.60;99.90;;;;;;2103175;28;1118;-53
2021/08/11 04:03:00;;;;;;;;;;;18.70;99.90;;;;;;2105747;28;1432;-54
2021/08/11 04:04:19;;;;;;;;;;;18.70;99.90;;;;;;2106027;28;1071;-54
2021/08/11 04:05:38;;;;;;;;;;;18.70;99.90;;;;;;2105901;28;1288;-53
2021/08/11 04:06:58;;;;;;;;;;;18.70;99.90;;;;;;2106007;28;1393;-53
2021/08/11 04:08:17;;;;;;;;;;;18.70;99.90;;;;;;2106614;28;1119;-53
2021/08/11 04:09:36;;;;;;;;;;;18.80;99.90;;;;;;2106625;28;1094;-53
2021/08/11 04:10:55;;;;;;;;;;;18.80;99.90;;;;;;2104593;28;1906;-53
2021/08/11 04:12:15;;;;;;;;;;;18.80;99.90;;;;;;2105630;28;827;-54
2021/08/11 04:13:34;;;;;;;;;;;18.80;99.90;;;;;;2105173;28;1503;-54
2021/08/11 04:14:53;;;;;;;;;;;18.80;99.90;;;;;;2096315;28;1378;-53
2021/08/11 04:16:12;;;;;;;;;;;18.80;99.90;;;;;;2098694;28;1430;-54
2021/08/11 04:17:32;;;;;;;;;;;18.80;99.90;;;;;;2106423;28;1271;-55
2021/08/11 04:18:51;;;;;;;;;;;18.80;99.90;;;;;;2107039;28;1055;-54
2021/08/11 04:20:10;;;;;;;;;;;18.80;99.90;;;;;;2103935;28;1142;-53
2021/08/11 04:21:29;;;;;;;;;;;18.90;99.90;;;;;;2106283;28;1633;-54
2021/08/11 04:22:49;;;;;;;;;;;18.90;99.90;;;;;;2102867;28;1166;-52
2021/08/11 04:24:08;;;;;;;;;;;18.80;99.90;;;;;;2105010;28;1055;-55
2021/08/11 04:25:27;;;;;;;;;;;18.90;99.90;;;;;;2103468;28;1117;-53
2021/08/11 04:26:46;;;;;;;;;;;18.90;99.90;;;;;;2101403;28;1293;-54
2021/08/11 04:28:08;;;;;;;;;;;18.90;99.90;;;;;;2103259;28;1061;-54
2021/08/11 04:29:28;;;;;;;;;;;18.90;99.90;;;;;;2103092;28;1124;-53
2021/08/11 04:30:47;;;;;;;;;;;18.90;99.90;;;;;;2105458;28;1906;-55
2021/08/11 04:32:06;;;;;;;;;;;18.90;99.90;;;;;;2106791;28;1633;-54
2021/08/11 04:33:25;;;;;;;;;;;18.90;99.90;;;;;;2107324;28;1513;-55
2021/08/11 04:34:45;;;;;;;;;;;18.90;99.90;;;;;;2104234;28;1200;-53
2021/08/11 04:36:04;;;;;;;;;;;18.90;99.90;;;;;;2106053;28;1106;-56
2021/08/11 04:37:23;;;;;;;;;;;18.80;99.90;;;;;;2103305;28;1161;-54
2021/08/11 04:38:42;;;;;;;;;;;18.90;99.90;;;;;;2104832;28;1016;-55
2021/08/11 04:40:03;;;;;;;;;;;18.90;99.90;;;;;;2105563;28;1551;-53
2021/08/11 04:41:22;;;;;;;;;;;18.90;99.90;;;;;;2106262;28;1525;-52
2021/08/11 04:42:41;;;;;;;;;;;18.90;99.90;;;;;;2104014;28;1253;-53
2021/08/11 04:44:00;;;;;;;;;;;18.90;99.90;;;;;;2105157;28;1503;-54
2021/08/11 04:45:19;;;;;;;;;;;18.80;99.90;;;;;;2104701;28;1455;-54
2021/08/11 04:46:39;;;;;;;;;;;18.90;99.90;;;;;;2106678;28;1111;-54
2021/08/11 04:47:58;;;;;;;;;;;18.90;99.90;;;;;;2106326;28;1223;-55
2021/08/11 04:49:17;;;;;;;;;;;18.90;99.90;;;;;;2102726;28;971;-54
2021/08/11 04:50:36;;;;;;;;;;;18.90;99.90;;;;;;2105001;28;1961;-55
2021/08/11 04:51:56;;;;;;;;;;;18.90;99.90;;;;;;2106254;28;1430;-53
2021/08/11 04:53:15;;;;;;;;;;;18.90;99.90;;;;;;2104918;28;1486;-53
2021/08/11 04:54:34;;;;;;;;;;;18.90;99.90;;;;;;2106316;28;926;-54
2021/08/11 04:55:53;;;;;;;;;;;18.90;99.90;;;;;;2105641;28;807;-54
2021/08/11 04:57:13;;;;;;;;;;;18.90;99.90;;;;;;2104624;28;776;-54
2021/08/11 04:58:32;;;;;;;;;;;18.90;99.90;;;;;;2104710;28;1068;-53
2021/08/11 04:59:51;;;;;;;;;;;18.90;99.90;;;;;;2105765;28;1219;-53
2021/08/11 05:01:10;;;;;;;;;;;18.90;99.90;;;;;;2107122;28;1695;-55
2021/08/11 05:02:29;;;;;;;;;;;18.90;99.90;;;;;;2105172;28;1132;-54
2021/08/11 05:03:49;;;;;;;;;;;18.90;99.90;;;;;;2105480;28;1370;-55
2021/08/11 05:05:08;;;;;;;;;;;18.90;99.90;;;;;;2100826;28;1277;-54
2021/08/11 05:06:28;;;;;;;;;;;18.90;99.90;;;;;;2100358;28;1369;-53
2021/08/11 05:07:47;;;;;;;;;;;18.90;99.90;;;;;;2106948;28;928;-55
2021/08/11 05:09:06;;;;;;;;;;;18.90;99.90;;;;;;2107296;28;983;-54
2021/08/11 05:10:26;;;;;;;;;;;18.90;99.90;;;;;;2108317;28;1902;-55
2021/08/11 05:11:45;;;;;;;;;;;18.90;99.90;;;;;;2103102;28;1501;-52
2021/08/11 05:13:04;;;;;;;;;;;18.90;99.90;;;;;;2111084;28;1507;-55
2021/08/11 05:14:23;;;;;;;;;;;18.90;99.90;;;;;;2106271;28;632;-54
2021/08/11 05:15:43;;;;;;;;;;;18.80;99.90;;;;;;2102062;28;1015;-55
2021/08/11 05:17:02;;;;;;;;;;;18.80;99.90;;;;;;2105066;28;1318;-53
2021/08/11 05:18:21;;;;;;;;;;;18.80;99.90;;;;;;2107521;28;1016;-55
2021/08/11 05:19:40;;;;;;;;;;;18.80;99.90;;;;;;2106975;28;1260;-54
2021/08/11 05:20:59;;;;;;;;;;;18.80;99.90;;;;;;2107237;28;1044;-55
2021/08/11 05:22:19;;;;;;;;;;;18.80;99.90;;;;;;2105589;28;1368;-55
2021/08/11 05:23:38;;;;;;;;;;;18.80;99.90;;;;;;2103991;28;1525;-55
2021/08/11 05:24:57;;;;;;;;;;;18.80;99.90;;;;;;2103518;28;1210;-56
2021/08/11 05:26:17;;;;;;;;;;;18.80;99.90;;;;;;2107001;28;1392;-56
2021/08/11 05:27:36;;;;;;;;;;;18.80;99.90;;;;;;2107099;28;1158;-54
2021/08/11 05:28:55;;;;;;;;;;;18.80;99.90;;;;;;2097296;28;1753;-54
2021/08/11 05:30:15;;;;;;;;;;;18.80;99.90;;;;;;2099486;28;1979;-55
2021/08/11 05:31:34;;;;;;;;;;;18.90;99.90;;;;;;2107020;28;1280;-55
2021/08/11 05:32:53;;;;;;;;;;;18.90;99.90;;;;;;2094349;28;1279;-54
2021/08/11 05:34:12;;;;;;;;;;;18.80;99.90;;;;;;2103457;28;1472;-53
2021/08/11 05:35:31;;;;;;;;;;;18.90;99.90;;;;;;2107880;28;1428;-54
2021/08/11 05:36:51;;;;;;;;;;;18.90;99.90;;;;;;2106182;28;1167;-53
2021/08/11 05:38:10;;;;;;;;;;;18.80;99.90;;;;;;2107704;28;1035;-53
2021/08/11 05:39:30;;;;;;;;;;;18.80;99.90;;;;;;2098846;28;1312;-55
2021/08/11 05:40:49;;;;;;;;;;;18.80;99.90;;;;;;2103317;28;1195;-56
2021/08/11 05:42:08;;;;;;;;;;;18.90;99.90;;;;;;2106671;28;1270;-54
2021/08/11 05:43:27;;;;;;;;;;;18.80;99.90;;;;;;2106680;28;1407;-55
2021/08/11 05:44:50;;;;;;;;;;;18.80;99.90;;;;;;2106396;28;1712;-55
2021/08/11 05:46:08;;;;;;;;;;;18.90;99.90;;;;;;2105318;28;1249;-54
2021/08/11 05:47:28;;;;;;;;;;;18.80;99.90;;;;;;2104136;28;1212;-54
2021/08/11 05:48:47;;;;;;;;;;;18.90;99.90;;;;;;2103892;28;1061;-54
2021/08/11 05:50:07;;;;;;;;;;;18.90;99.90;;;;;;2104640;28;1104;-56
2021/08/11 05:51:26;;;;;;;;;;;18.90;99.90;;;;;;2105625;28;1653;-55
2021/08/11 05:52:46;;;;;;;;;;;18.90;99.90;;;;;;2104010;28;1554;-54
2021/08/11 05:54:05;;;;;;;;;;;18.90;99.90;;;;;;2105614;28;1228;-55
2021/08/11 05:55:25;;;;;;;;;;;18.90;99.90;;;;;;2106064;28;1259;-54
2021/08/11 05:56:44;;;;;;;;;;;18.90;99.90;;;;;;2105551;28;1145;-54
2021/08/11 05:58:03;;;;;;;;;;;18.90;99.90;;;;;;2104728;28;2059;-53
2021/08/11 05:59:22;;;;;;;;;;;18.90;99.90;;;;;;2105678;28;1282;-54
2021/08/11 06:00:41;;;;;;;;;;;18.90;99.90;;;;;;2107113;28;1071;-55
2021/08/11 06:02:01;;;;;;;;;;;18.90;99.90;;;;;;2106903;28;1385;-53
2021/08/11 06:03:20;;;;;;;;;;;18.90;99.90;;;;;;2105778;28;1510;-53
2021/08/11 06:04:48;;;;;;;;;;;18.90;99.90;;;;;;2106036;28;1320;-53
2021/08/11 06:06:07;;;;;;;;;;;18.90;99.90;;;;;;2105466;28;1167;-53
2021/08/11 06:07:27;;;;;;;;;;;18.90;99.90;;;;;;2106405;28;1344;-53
2021/08/11 06:08:46;;;;;;;;;;;18.90;99.90;;;;;;2106405;28;1274;-52
2021/08/11 06:10:06;;;;;;;;;;;18.90;99.90;;;;;;2104642;28;1284;-53
2021/08/11 06:11:25;;;;;;;;;;;18.80;99.90;;;;;;2105944;28;1240;-53
2021/08/11 06:12:47;;;;;;;;;;;18.70;99.90;;;;;;2104669;28;1827;-55
2021/08/11 06:14:06;;;;;;;;;;;18.70;99.90;;;;;;2104789;28;1219;-54
2021/08/11 06:15:25;;;;;;;;;;;18.80;99.90;;;;;;2106092;28;1247;-53
2021/08/11 06:16:44;;;;;;;;;;;18.80;99.90;;;;;;2105418;28;1122;-55
2021/08/11 06:18:04;;;;;;;;;;;18.80;99.90;;;;;;2107425;28;1116;-54
2021/08/11 06:19:23;;;;;;;;;;;18.80;99.90;;;;;;2105744;28;1272;-53
2021/08/11 06:20:42;;;;;;;;;;;18.80;99.90;;;;;;2104609;28;1322;-53
2021/08/11 06:22:01;;;;;;;;;;;18.80;99.90;;;;;;2106214;28;1219;-54
2021/08/11 06:23:21;;;;;;;;;;;18.80;99.90;;;;;;2101853;28;1613;-54
2021/08/11 06:24:40;;;;;;;;;;;18.80;99.90;;;;;;2102896;28;1543;-55
2021/08/11 06:25:59;;;;;;;;;;;18.80;99.90;;;;;;2105085;28;1043;-53
2021/08/11 06:27:18;;;;;;;;;;;18.80;99.90;;;;;;2098188;28;1149;-54
2021/08/11 06:28:38;;;;;;;;;;;18.80;99.90;;;;;;2099064;28;1308;-54
2021/08/11 06:29:57;;;;;;;;;;;18.80;99.90;;;;;;2105157;28;1455;-54
2021/08/11 06:31:17;;;;;;;;;;;18.80;99.90;;;;;;2106127;28;1910;-53
2021/08/11 06:32:37;;;;;;;;;;;18.80;99.90;;;;;;2106973;28;1064;-53
2021/08/11 06:33:56;;;;;;;;;;;18.80;99.90;;;;;;2105457;28;1045;-54
2021/08/11 06:35:15;;;;;;;;;;;18.90;99.90;;;;;;2106202;28;1427;-54
2021/08/11 06:36:34;;;;;;;;;;;18.90;99.90;;;;;;2106950;28;968;-53
2021/08/11 06:37:54;;;;;;;;;;;18.80;99.90;;;;;;2102862;28;1059;-53
2021/08/11 06:39:13;;;;;;;;;;;18.90;99.90;;;;;;2105964;28;1171;-55
2021/08/11 06:40:35;;;;;;;;;;;18.90;99.90;;;;;;2104525;28;1284;-54
2021/08/11 06:41:55;;;;;;;;;;;18.90;99.90;;;;;;2099861;28;1148;-55
2021/08/11 06:43:19;;;;;;;;;;;18.90;99.90;;;;;;2099489;28;1510;-55
2021/08/11 06:44:39;;;;;;;;;;;18.90;99.90;;;;;;2101778;28;1260;-53
2021/08/11 06:45:58;;;;;;;;;;;18.80;99.90;;;;;;2096289;28;1018;-56
2021/08/11 06:47:17;;;;;;;;;;;18.80;99.90;;;;;;2102587;28;1141;-53
2021/08/11 06:48:37;;;;;;;;;;;18.90;99.90;;;;;;2101818;28;1257;-53
2021/08/11 06:49:56;;;;;;;;;;;18.90;99.90;;;;;;2105712;28;1149;-55
2021/08/11 06:51:15;;;;;;;;;;;18.90;99.90;;;;;;2106489;28;1967;-53
2021/08/11 06:52:35;;;;;;;;;;;18.90;99.90;;;;;;2106698;28;1102;-53
2021/08/11 06:53:54;;;;;;;;;;;18.90;99.90;;;;;;2102619;28;1373;-53
2021/08/11 06:55:14;;;;;;;;;;;18.90;99.90;;;;;;2106134;28;1223;-54
2021/08/11 06:56:34;;;;;;;;;;;18.90;99.90;;;;;;2106070;28;940;-53
2021/08/11 06:57:53;;;;;;;;;;;18.90;99.90;;;;;;2094298;28;1063;-54
2021/08/11 06:59:13;;;;;;;;;;;18.90;99.90;;;;;;2098543;28;1544;-55
2021/08/11 07:00:32;;;;;;;;;;;18.90;99.90;;;;;;2105172;28;1162;-55
2021/08/11 07:01:53;;;;;;;;;;;18.90;99.90;;;;;;2103322;28;1178;-53
2021/08/11 07:03:12;;;;;;;;;;;18.90;99.90;;;;;;2106606;28;1525;-54
2021/08/11 07:04:31;;;;;;;;;;;18.90;99.90;;;;;;2105901;28;1246;-54
2021/08/11 07:05:51;;;;;;;;;;;18.90;99.90;;;;;;2106594;28;1480;-55
2021/08/11 07:07:10;;;;;;;;;;;18.90;99.90;;;;;;2105508;28;1117;-55
2021/08/11 07:08:29;;;;;;;;;;;18.90;99.90;;;;;;2105227;28;1213;-53
2021/08/11 07:09:48;;;;;;;;;;;18.80;99.90;;;;;;2105942;28;1044;-53
2021/08/11 07:11:07;;;;;;;;;;;18.90;99.90;;;;;;2104913;28;1902;-55
2021/08/11 07:12:27;;;;;;;;;;;18.90;99.90;;;;;;2102741;28;1065;-55
2021/08/11 07:13:46;;;;;;;;;;;18.90;99.90;;;;;;2104976;28;1523;-53
2021/08/11 07:15:06;;;;;;;;;;;18.80;99.90;;;;;;2092256;28;1304;-54
2021/08/11 07:16:25;;;;;;;;;;;18.90;99.90;;;;;;2101326;28;933;-55
2021/08/11 07:17:48;;;;;;;;;;;18.90;99.90;;;;;;2107092;28;1089;-53
2021/08/11 07:19:07;;;;;;;;;;;18.90;99.90;;;;;;2104913;28;1228;-55
2021/08/11 07:20:27;;;;;;;;;;;18.90;99.90;;;;;;2101137;28;1010;-55
2021/08/11 07:21:46;;;;;;;;;;;18.90;99.90;;;;;;2103461;28;1220;-54
2021/08/11 07:23:05;;;;;;;;;;;18.90;99.90;;;;;;2104566;28;1457;-53
2021/08/11 07:24:24;;;;;;;;;;;18.90;99.90;;;;;;2106612;28;1175;-53
2021/08/11 07:25:44;;;;;;;;;;;18.90;99.90;;;;;;2106133;28;1351;-54
2021/08/11 07:27:03;;;;;;;;;;;18.90;99.90;;;;;;2103052;28;1447;-55
2021/08/11 07:28:23;;;;;;;;;;;18.90;99.90;;;;;;2102546;28;955;-55
2021/08/11 07:29:42;;;;;;;;;;;18.90;99.90;;;;;;2103468;28;1358;-54
2021/08/11 07:31:01;;;;;;;;;;;18.90;99.90;;;;;;2102771;28;1910;-55
2021/08/11 07:32:21;;;;;;;;;;;18.90;99.90;;;;;;2103207;28;1000;-53
2021/08/11 07:33:41;;;;;;;;;;;18.90;99.90;;;;;;2103219;28;1547;-54
2021/08/11 07:35:00;;;;;;;;;;;18.90;99.90;;;;;;2102958;28;1346;-53
2021/08/11 07:36:19;;;;;;;;;;;18.90;99.90;;;;;;2106922;28;1024;-54
2021/08/11 07:37:48;;;;;;;;;;;18.90;99.90;;;;;;2106383;28;1116;-55
2021/08/11 07:39:08;;;;;;;;;;;18.90;99.90;;;;;;2104607;28;1168;-53
2021/08/11 07:40:27;;;;;;;;;;;18.90;99.90;;;;;;2105307;28;1170;-54
2021/08/11 07:41:46;;;;;;;;;;;18.90;99.90;;;;;;2106189;28;1055;-53
2021/08/11 07:43:06;;;;;;;;;;;18.90;99.90;;;;;;2104068;28;1537;-55
2021/08/11 07:44:26;;;;;;;;;;;18.90;99.90;;;;;;2106377;28;932;-55
2021/08/11 07:45:45;;;;;;;;;;;18.90;99.90;;;;;;2104718;28;885;-54
2021/08/11 07:47:04;;;;;;;;;;;18.90;99.90;;;;;;2106843;28;1158;-52
2021/08/11 07:48:23;;;;;;;;;;;18.90;99.90;;;;;;2105924;28;937;-54
2021/08/11 07:49:43;;;;;;;;;;;18.90;99.90;;;;;;2096252;28;882;-54
2021/08/11 07:51:02;;;;;;;;;;;18.90;99.90;;;;;;2102702;28;1898;-53
2021/08/11 07:52:22;;;;;;;;;;;18.90;99.90;;;;;;2103817;28;1523;-54
2021/08/11 07:53:41;;;;;;;;;;;18.90;99.90;;;;;;2102810;28;1415;-53
2021/08/11 07:55:01;;;;;;;;;;;18.90;99.90;;;;;;2105073;28;1302;-53
2021/08/11 07:56:21;;;;;;;;;;;18.90;99.90;;;;;;2097510;28;915;-56